메인 페이지
METAR-TAF:

METAR-TAF

공항 :

포르투알레그리, 히우그란지두술, 브라질

위도: 30-00S, 경도: 051-11W, 고도: 3m

현재 날씨관측

예보는 57분 전, 18:00시(UTC)에 발표되었습니다.
동남동11kt
온도 27°C
습도 66%
기압 1015 hPa
시정 10km 이상
고도 3000ft 상공 구름 많음
고도 7000ft 상공 구름 많음

METAR: SBPA 161800Z 11011KT 9999 BKN030 BKN070 27/20 Q1015

시각: 16:57 (18:57 UTC)

예보

예보는 4 시간 27분 전, 14:30시(UTC)에 발표되었습니다.
예보 대상 시간: 16일 18시부터 17일 18시까지 (UTC)
동남동10kt
시정 10km 이상
고도 4000ft 상공 구름 보통
전환 중
16일 18시부터 16일 19시까지 (UTC)
동남동14kt
고도 4500ft 상공 구름 조금
전환 중
17일 00시부터 17일 02시까지 (UTC)
동남동7kt
시정 10km 이상
1500m 미만 상공 구름 및 적란운 없음
확률 40% :
일시적
17일 08시부터 17일 10시까지 (UTC)
시정 10km 이상
고도 1000ft 상공 구름 많음
전환 중
17일 10시부터 17일 12시까지 (UTC)
시정 10km 이상
고도 2000ft 상공 구름 보통

TAF: SBPA 161430Z 1618/1718 11010KT 9999 SCT040 TX29/1618Z TN20/1708Z BECMG 1618/1619 11014KT FEW045 BECMG 1700/1702 11007KT CAVOK PROB40 TEMPO 1708/1710 9999 BKN010 BECMG 1710/1712 9999 SCT020 RMK PEB

4,000개 이상의 공항 관측 자료 및 예보 (METAR 및 TAF 보고).

지도상에서 검색 가능한 기상관측소가 노란 점과 빨간 점으로 표시되어 있습니다.

기상관측소 명을 보려면 표시 위로 마우스를 이동하세요.

날씨 관측과 예보를 보려면 클릭하세요.

지도 변경 : 확대하려면 엑스 표시가 있는 녹색 버튼, 축소하려면 빼기 표시가 있는 녹색 버튼, 다음 페이지의 지도를 보려면 녹색 화살표를 클릭하세요.


METAR-TAF: